Time;durP1;ratioP1;P1;durP2;ratioP2;P2;SDS_P1;SDS_P2;PMS_P1;PMS_P2;Temp;Humidity;BMP_temperature;BMP_pressure;BME280_temperature;BME280_humidity;BME280_pressure;Samples;Min_cycle;Max_cycle;Signal;HPM_P1;HPM_P2
2021/08/15 00:00:08;;;;;;;9.70;6.68;;;27.30;70.00;;;;;;5115007;28;20031;-55
2021/08/15 00:02:39;;;;;;;11.68;6.88;;;27.20;70.40;;;;;;5114128;28;20036;-53
2021/08/15 00:05:07;;;;;;;10.35;7.80;;;27.20;70.70;;;;;;5114091;28;20044;-55
2021/08/15 00:07:36;;;;;;;9.10;7.88;;;27.10;70.80;;;;;;5114115;28;20488;-52
2021/08/15 00:10:03;;;;;;;9.55;7.93;;;27.10;70.90;;;;;;5113737;28;20042;-53
2021/08/15 00:12:29;;;;;;;12.13;7.32;;;27.10;71.10;;;;;;5114456;28;20031;-49
2021/08/15 00:14:56;;;;;;;10.88;7.93;;;27.00;71.30;;;;;;5114645;28;20031;-54
2021/08/15 00:17:23;;;;;;;9.75;8.00;;;27.00;71.60;;;;;;5113865;28;20039;-52
2021/08/15 00:22:42;;;;;;;13.20;7.65;;;27.00;71.90;;;;;;5114619;28;20383;-52
2021/08/15 00:25:10;;;;;;;10.85;6.82;;;27.00;71.30;;;;;;5113883;28;20039;-49
2021/08/15 00:27:37;;;;;;;12.88;6.85;;;27.00;70.10;;;;;;5113836;28;20039;-52
2021/08/15 00:30:05;;;;;;;13.38;7.15;;;27.10;69.20;;;;;;5114566;28;20028;-51
2021/08/15 00:32:31;;;;;;;11.45;6.45;;;27.10;68.60;;;;;;5113716;28;20058;-49
2021/08/15 00:34:58;;;;;;;10.25;7.18;;;27.10;68.30;;;;;;5113166;28;20044;-48
2021/08/15 00:37:24;;;;;;;9.55;6.15;;;27.10;67.90;;;;;;5114622;28;20076;-51
2021/08/15 00:39:51;;;;;;;9.93;6.82;;;27.10;67.70;;;;;;5113909;27;20479;-53
2021/08/15 00:42:17;;;;;;;10.23;7.20;;;27.20;68.10;;;;;;5113276;28;20470;-48
2021/08/15 00:44:44;;;;;;;11.52;7.13;;;27.10;69.50;;;;;;5113901;28;20411;-52
2021/08/15 00:47:11;;;;;;;14.05;7.60;;;27.10;69.90;;;;;;5113004;28;20051;-54
2021/08/15 00:49:38;;;;;;;12.00;7.05;;;27.00;70.10;;;;;;5112558;28;20070;-52
2021/08/15 00:52:05;;;;;;;8.82;6.95;;;27.00;70.50;;;;;;5113982;28;20027;-51
2021/08/15 00:54:33;;;;;;;10.75;7.47;;;26.90;70.70;;;;;;5113617;28;20043;-51
2021/08/15 00:57:01;;;;;;;11.35;7.53;;;26.80;71.00;;;;;;5113163;28;20040;-50
2021/08/15 00:59:28;;;;;;;10.85;6.85;;;26.80;71.60;;;;;;5113798;28;20036;-51
2021/08/15 01:01:58;;;;;;;11.63;6.63;;;26.70;71.70;;;;;;5112674;28;20042;-50
2021/08/15 01:04:26;;;;;;;11.93;7.40;;;26.70;71.60;;;;;;5112925;28;20052;-52
2021/08/15 01:06:53;;;;;;;11.98;7.32;;;26.70;71.80;;;;;;5113012;28;20055;-55
2021/08/15 01:09:22;;;;;;;9.88;7.22;;;26.60;72.20;;;;;;5112688;28;20044;-52
2021/08/15 01:11:49;;;;;;;9.85;7.32;;;26.60;72.30;;;;;;5112728;28;20031;-50
2021/08/15 01:14:16;;;;;;;12.73;7.20;;;26.60;72.60;;;;;;5112552;28;20506;-49
2021/08/15 01:16:44;;;;;;;11.40;7.38;;;26.50;72.80;;;;;;5113354;28;20039;-54
2021/08/15 01:19:12;;;;;;;9.80;7.30;;;26.50;73.00;;;;;;5112745;28;20408;-52
2021/08/15 01:21:39;;;;;;;10.05;6.68;;;26.50;73.30;;;;;;5112426;28;20031;-54
2021/08/15 01:24:06;;;;;;;14.00;6.40;;;26.40;73.30;;;;;;5112796;28;20050;-55
2021/08/15 01:26:33;;;;;;;10.88;6.60;;;26.40;73.30;;;;;;5112676;28;20043;-54
2021/08/15 01:28:59;;;;;;;10.82;7.70;;;26.40;73.40;;;;;;5112472;28;20047;-55
2021/08/15 01:31:26;;;;;;;9.60;6.97;;;26.30;73.80;;;;;;5113187;28;20047;-56
2021/08/15 01:33:53;;;;;;;9.43;7.60;;;26.30;73.90;;;;;;5112605;28;20051;-51
2021/08/15 01:36:21;;;;;;;9.60;7.28;;;26.20;74.10;;;;;;5112608;28;20066;-50
2021/08/15 01:38:49;;;;;;;12.68;7.20;;;26.20;74.00;;;;;;5113126;28;20038;-53
2021/08/15 01:41:16;;;;;;;16.13;7.43;;;26.20;74.20;;;;;;5112213;28;20040;-53
2021/08/15 01:43:49;;;;;;;10.10;6.55;;;26.20;74.50;;;;;;5112515;28;20383;-52
2021/08/15 01:46:17;;;;;;;12.48;7.43;;;26.10;74.90;;;;;;5113163;28;20036;-54
2021/08/15 01:48:43;;;;;;;9.88;6.85;;;26.10;75.00;;;;;;5112876;28;20043;-53
2021/08/15 01:51:10;;;;;;;9.00;7.47;;;26.20;74.80;;;;;;5113010;28;20020;-55
2021/08/15 01:53:37;;;;;;;9.30;6.90;;;26.20;74.80;;;;;;5112215;28;20058;-52
2021/08/15 01:56:04;;;;;;;11.68;7.78;;;26.10;74.60;;;;;;5112778;28;20042;-51
2021/08/15 01:58:30;;;;;;;12.82;7.95;;;26.10;74.40;;;;;;5112184;28;20047;-53
2021/08/15 02:00:57;;;;;;;13.43;7.97;;;26.10;74.50;;;;;;5115239;28;20040;-51
2021/08/15 02:03:24;;;;;;;9.80;7.55;;;26.10;74.60;;;;;;5116305;28;20039;-50
2021/08/15 02:05:50;;;;;;;15.57;7.13;;;26.00;74.70;;;;;;5116425;28;20048;-52
2021/08/15 02:08:16;;;;;;;11.45;7.22;;;26.00;75.00;;;;;;5115955;28;20040;-51
2021/08/15 02:10:43;;;;;;;10.43;7.45;;;26.00;75.00;;;;;;5116781;28;20039;-53
2021/08/15 02:13:10;;;;;;;12.57;7.82;;;26.00;75.10;;;;;;5116915;28;20035;-53
2021/08/15 02:15:37;;;;;;;12.95;7.13;;;26.00;75.10;;;;;;5116187;28;20054;-55
2021/08/15 02:18:04;;;;;;;9.50;7.38;;;26.00;75.20;;;;;;5116035;28;20043;-52
2021/08/15 02:20:32;;;;;;;8.73;7.28;;;25.90;75.30;;;;;;5116390;28;20048;-52
2021/08/15 02:22:59;;;;;;;13.23;7.20;;;25.90;75.80;;;;;;5116615;27;20416;-51
2021/08/15 02:25:26;;;;;;;17.40;7.90;;;25.80;75.90;;;;;;5116302;28;20395;-50
2021/08/15 02:27:53;;;;;;;10.15;6.97;;;25.80;76.10;;;;;;5115647;28;20372;-54
2021/08/15 02:30:22;;;;;;;11.55;7.95;;;25.80;76.10;;;;;;5115765;28;20043;-51
2021/08/15 02:32:50;;;;;;;10.27;7.90;;;25.80;76.20;;;;;;5116355;28;20048;-51
2021/08/15 02:35:17;;;;;;;11.88;7.50;;;25.80;76.30;;;;;;5116326;28;20032;-52
2021/08/15 02:37:46;;;;;;;12.27;7.78;;;25.80;76.50;;;;;;5115352;28;20039;-54
2021/08/15 02:40:14;;;;;;;11.80;8.05;;;25.70;76.40;;;;;;5116195;28;20475;-51
2021/08/15 02:42:42;;;;;;;10.05;7.10;;;25.70;76.60;;;;;;5097580;28;20039;-53
2021/08/15 02:45:12;;;;;;;11.30;7.53;;;25.60;77.10;;;;;;5116120;27;20395;-53
2021/08/15 02:47:38;;;;;;;11.35;7.72;;;25.60;77.30;;;;;;5115640;28;20055;-52
2021/08/15 02:50:05;;;;;;;11.40;8.43;;;25.60;77.20;;;;;;5115471;28;20089;-53
2021/08/15 02:52:32;;;;;;;11.65;8.07;;;25.60;77.40;;;;;;5115417;28;20039;-52
2021/08/15 02:55:01;;;;;;;8.90;7.57;;;25.50;77.70;;;;;;5116048;28;20046;-51
2021/08/15 02:57:27;;;;;;;11.65;7.80;;;25.50;77.80;;;;;;5115845;28;20039;-55
2021/08/15 02:59:54;;;;;;;12.60;7.47;;;25.50;77.70;;;;;;5115276;28;20036;-53
2021/08/15 03:02:21;;;;;;;9.38;7.43;;;25.50;77.40;;;;;;5116060;28;20039;-52
2021/08/15 03:04:48;;;;;;;11.38;8.05;;;25.60;77.50;;;;;;5115516;28;20024;-50
2021/08/15 03:07:16;;;;;;;8.65;7.75;;;25.50;77.50;;;;;;5114893;28;20503;-53
2021/08/15 03:09:43;;;;;;;13.40;7.43;;;25.50;77.60;;;;;;5115511;28;20375;-53
2021/08/15 03:12:10;;;;;;;10.52;7.68;;;25.50;77.80;;;;;;5115181;28;20031;-52
2021/08/15 03:14:38;;;;;;;12.95;8.07;;;25.50;78.00;;;;;;5114772;28;20059;-52
2021/08/15 03:17:06;;;;;;;10.77;7.20;;;25.40;78.10;;;;;;5115551;28;20039;-51
2021/08/15 03:19:32;;;;;;;12.57;7.53;;;25.40;78.20;;;;;;5115446;28;20031;-53
2021/08/15 03:21:59;;;;;;;9.88;8.00;;;25.40;78.00;;;;;;5115816;28;20376;-53
2021/08/15 03:24:25;;;;;;;10.18;7.90;;;25.40;78.00;;;;;;5114573;28;20354;-54
2021/08/15 03:26:52;;;;;;;15.48;7.85;;;25.40;78.30;;;;;;5114660;28;20400;-54
2021/08/15 03:29:19;;;;;;;11.90;7.43;;;25.40;78.40;;;;;;5114512;28;20044;-53
2021/08/15 03:31:46;;;;;;;13.50;7.35;;;25.30;78.80;;;;;;5115587;28;20407;-50
2021/08/15 03:34:13;;;;;;;9.32;7.47;;;25.30;79.00;;;;;;5114511;28;20047;-57
2021/08/15 03:36:40;;;;;;;12.73;6.85;;;25.30;79.30;;;;;;5115736;28;20035;-55
2021/08/15 03:39:07;;;;;;;10.35;7.65;;;25.20;79.20;;;;;;5114871;28;20023;-55
2021/08/15 03:41:33;;;;;;;10.57;7.85;;;25.30;79.10;;;;;;5114679;28;20050;-49
2021/08/15 03:44:00;;;;;;;11.93;7.70;;;25.20;79.20;;;;;;5114175;28;20488;-53
2021/08/15 03:46:26;;;;;;;12.38;8.15;;;25.20;79.40;;;;;;5114139;28;20035;-55
2021/08/15 03:48:53;;;;;;;10.82;8.00;;;25.20;79.30;;;;;;5114914;28;20334;-53
2021/08/15 03:51:19;;;;;;;10.05;7.28;;;25.20;79.30;;;;;;5115258;27;20058;-52
2021/08/15 03:53:46;;;;;;;8.68;7.22;;;25.20;79.50;;;;;;5114916;28;20062;-54
2021/08/15 03:56:12;;;;;;;13.32;7.93;;;25.10;79.50;;;;;;5114313;28;20047;-54
2021/08/15 03:58:39;;;;;;;11.40;7.25;;;25.10;79.70;;;;;;5114852;28;20384;-53
2021/08/15 04:01:06;;;;;;;15.02;7.80;;;25.10;79.90;;;;;;5113951;28;20050;-54
2021/08/15 04:03:32;;;;;;;15.60;10.13;;;25.10;80.10;;;;;;5114911;28;20031;-55
2021/08/15 04:06:06;;;;;;;11.82;8.07;;;25.10;80.30;;;;;;5113691;28;20046;-51
2021/08/15 04:08:32;;;;;;;11.63;8.02;;;25.10;80.40;;;;;;5113750;28;20474;-55
2021/08/15 04:11:00;;;;;;;9.70;7.53;;;25.00;80.40;;;;;;5114557;28;20047;-54
2021/08/15 04:13:27;;;;;;;12.75;6.85;;;25.10;80.60;;;;;;5114631;27;20383;-56
2021/08/15 04:15:53;;;;;;;10.23;7.43;;;25.10;80.20;;;;;;5113771;28;20040;-52
2021/08/15 04:18:20;;;;;;;13.32;9.43;;;25.10;80.40;;;;;;5114419;28;20028;-50
2021/08/15 04:20:46;;;;;;;12.23;7.45;;;25.10;80.60;;;;;;5114265;28;20407;-49
2021/08/15 04:23:13;;;;;;;11.00;7.75;;;25.20;80.50;;;;;;5113722;27;20040;-52
2021/08/15 04:25:39;;;;;;;13.93;8.00;;;25.20;80.40;;;;;;5114254;27;20048;-51
2021/08/15 04:28:06;;;;;;;12.02;8.10;;;25.20;80.40;;;;;;5113563;28;20058;-49
2021/08/15 04:30:32;;;;;;;9.68;7.57;;;25.10;80.60;;;;;;5113417;28;20419;-51
2021/08/15 04:32:59;;;;;;;10.35;7.38;;;25.10;80.20;;;;;;5113139;28;20052;-52
2021/08/15 04:35:25;;;;;;;11.82;8.52;;;25.20;79.60;;;;;;5113312;28;20059;-52
2021/08/15 04:37:52;;;;;;;10.52;7.25;;;25.20;79.90;;;;;;5114268;28;20027;-50
2021/08/15 04:40:18;;;;;;;12.55;7.30;;;25.10;79.90;;;;;;5113552;28;20511;-51
2021/08/15 04:42:45;;;;;;;14.10;7.82;;;25.10;80.30;;;;;;5113301;28;20047;-55
2021/08/15 04:45:11;;;;;;;16.55;9.20;;;25.00;81.10;;;;;;5113398;28;20043;-53
2021/08/15 04:47:38;;;;;;;13.27;7.65;;;25.00;79.90;;;;;;5113908;28;20043;-46
2021/08/15 04:50:04;;;;;;;14.60;8.02;;;25.10;78.30;;;;;;5113961;28;20058;-52
2021/08/15 04:52:31;;;;;;;13.55;8.15;;;25.10;78.30;;;;;;5113479;28;20031;-49
2021/08/15 04:54:57;;;;;;;12.05;7.88;;;25.10;78.50;;;;;;5113113;28;20479;-48
2021/08/15 04:57:24;;;;;;;11.25;8.20;;;25.10;78.60;;;;;;5112763;28;20035;-49
2021/08/15 04:59:50;;;;;;;12.00;8.25;;;25.10;78.80;;;;;;5113035;28;20050;-50
2021/08/15 05:02:17;;;;;;;13.10;7.82;;;25.10;79.20;;;;;;5113840;28;20020;-52
2021/08/15 05:04:43;;;;;;;12.40;8.27;;;25.10;79.40;;;;;;5113147;28;20050;-50
2021/08/15 05:07:10;;;;;;;9.95;7.45;;;25.10;79.40;;;;;;5113257;28;20487;-50
2021/08/15 05:09:36;;;;;;;11.02;8.18;;;25.10;79.30;;;;;;5112783;28;20047;-50
2021/08/15 05:12:03;;;;;;;14.48;8.23;;;25.00;79.30;;;;;;5113308;28;20043;-48
2021/08/15 05:14:29;;;;;;;11.60;7.78;;;25.00;79.60;;;;;;5112610;28;20048;-49
2021/08/15 05:16:56;;;;;;;12.55;8.45;;;24.90;80.10;;;;;;5112712;28;20044;-53
2021/08/15 05:19:22;;;;;;;13.52;7.25;;;24.90;80.40;;;;;;5112721;28;20138;-52
2021/08/15 05:21:49;;;;;;;15.40;8.40;;;24.90;80.60;;;;;;5113302;28;20036;-51
2021/08/15 05:24:15;;;;;;;12.95;8.02;;;24.90;80.90;;;;;;5112898;28;20487;-52
2021/08/15 05:26:43;;;;;;;13.45;9.13;;;24.90;81.90;;;;;;5112996;28;20023;-52
2021/08/15 05:29:11;;;;;;;9.88;8.57;;;24.90;80.90;;;;;;5113385;28;20376;-51
2021/08/15 05:31:37;;;;;;;11.63;8.82;;;24.90;81.20;;;;;;5112506;28;20053;-55
2021/08/15 05:34:04;;;;;;;12.38;7.88;;;25.00;81.30;;;;;;5112831;28;20042;-53
2021/08/15 05:36:30;;;;;;;11.55;7.40;;;25.00;81.20;;;;;;5113195;28;20043;-50
2021/08/15 05:38:57;;;;;;;14.13;8.35;;;25.00;81.40;;;;;;5112226;28;20049;-56
2021/08/15 05:41:23;;;;;;;10.88;7.30;;;25.10;81.20;;;;;;5112230;28;20039;-51
2021/08/15 05:43:49;;;;;;;16.05;9.05;;;25.10;80.40;;;;;;5113146;28;20051;-55
2021/08/15 05:46:17;;;;;;;11.70;7.60;;;25.20;79.30;;;;;;5112643;28;20032;-53
2021/08/15 05:48:43;;;;;;;9.77;7.68;;;25.30;76.70;;;;;;5112580;28;20400;-52
2021/08/15 05:51:11;;;;;;;12.60;7.05;;;25.30;75.80;;;;;;5112713;28;20032;-49
2021/08/15 05:53:38;;;;;;;16.00;7.63;;;25.40;75.40;;;;;;5112242;28;20522;-55
2021/08/15 05:56:04;;;;;;;10.50;8.35;;;25.40;75.20;;;;;;5112221;28;20519;-54
2021/08/15 05:58:31;;;;;;;10.55;8.82;;;25.50;76.30;;;;;;5113303;28;20039;-55
2021/08/15 06:00:57;;;;;;;12.75;8.45;;;25.50;77.80;;;;;;5112309;28;20470;-51
2021/08/15 06:03:24;;;;;;;14.48;9.00;;;25.50;78.20;;;;;;5112373;28;20396;-50
2021/08/15 06:05:50;;;;;;;11.85;8.57;;;25.50;77.90;;;;;;5113039;28;20043;-53
2021/08/15 06:08:17;;;;;;;11.40;8.23;;;25.50;77.40;;;;;;5111835;28;20041;-53
2021/08/15 06:10:43;;;;;;;12.60;8.43;;;25.60;77.70;;;;;;5112284;28;20035;-54
2021/08/15 06:13:10;;;;;;;11.63;8.35;;;25.60;78.10;;;;;;5111822;28;20043;-50
2021/08/15 06:15:37;;;;;;;10.30;8.05;;;25.70;78.30;;;;;;5112114;28;20054;-53
2021/08/15 06:18:03;;;;;;;16.40;8.52;;;25.70;78.00;;;;;;5112165;28;20043;-53
2021/08/15 06:20:30;;;;;;;13.25;7.90;;;26.00;77.60;;;;;;5111937;28;20057;-53
2021/08/15 06:22:56;;;;;;;11.43;8.27;;;27.30;72.00;;;;;;5111820;28;20059;-51
2021/08/15 06:25:23;;;;;;;10.35;7.55;;;28.50;65.40;;;;;;5112690;28;20023;-54
2021/08/15 06:27:49;;;;;;;9.65;7.32;;;29.50;61.90;;;;;;5112860;28;20036;-55
2021/08/15 06:30:17;;;;;;;9.90;7.75;;;29.90;59.60;;;;;;5112124;28;20040;-53
2021/08/15 06:32:49;;;;;;;11.50;7.50;;;30.30;58.70;;;;;;5111854;28;20518;-51
2021/08/15 06:35:21;;;;;;;11.20;7.43;;;30.20;58.10;;;;;;5112497;28;20059;-52
2021/08/15 06:37:50;;;;;;;12.05;8.20;;;29.40;61.10;;;;;;5110795;28;20364;-57
2021/08/15 06:40:17;;;;;;;13.68;7.38;;;28.70;64.00;;;;;;5111954;28;20047;-55
2021/08/15 06:42:44;;;;;;;14.57;8.18;;;28.30;65.40;;;;;;5112000;28;20466;-51
2021/08/15 06:45:10;;;;;;;11.82;7.45;;;28.00;65.00;;;;;;5111689;28;20051;-53
2021/08/15 06:47:37;;;;;;;14.40;7.50;;;27.90;65.30;;;;;;5114085;28;20040;-55
2021/08/15 06:50:07;;;;;;;9.88;6.47;;;27.80;65.40;;;;;;5115988;28;20494;-53
2021/08/15 06:52:34;;;;;;;12.35;7.55;;;27.70;65.80;;;;;;5115866;27;20047;-55
2021/08/15 06:55:03;;;;;;;10.10;6.72;;;27.80;65.60;;;;;;5115542;28;20404;-52
2021/08/15 06:57:30;;;;;;;13.68;7.28;;;27.80;65.20;;;;;;5116093;28;20035;-55
2021/08/15 06:59:56;;;;;;;10.13;7.53;;;27.70;64.00;;;;;;5115362;28;20058;-54
2021/08/15 07:02:23;;;;;;;11.45;7.53;;;27.80;64.30;;;;;;5115188;28;20044;-51
2021/08/15 07:04:49;;;;;;;13.90;7.90;;;27.80;64.40;;;;;;5115471;28;20027;-55
2021/08/15 07:07:15;;;;;;;15.00;7.35;;;27.80;64.30;;;;;;5114956;28;20076;-52
2021/08/15 07:09:42;;;;;;;13.07;7.20;;;28.00;64.00;;;;;;5115677;28;20026;-52
2021/08/15 07:12:08;;;;;;;13.75;7.10;;;28.10;63.50;;;;;;5114992;28;20063;-54
2021/08/15 07:14:37;;;;;;;11.07;7.15;;;28.30;63.10;;;;;;5114734;28;20058;-54
2021/08/15 07:17:05;;;;;;;12.07;7.10;;;28.40;62.50;;;;;;5114926;28;20074;-56
2021/08/15 07:19:31;;;;;;;16.23;7.90;;;28.60;62.40;;;;;;5114600;28;20036;-50
2021/08/15 07:21:58;;;;;;;13.07;7.15;;;28.60;61.50;;;;;;5114949;28;20498;-53
2021/08/15 07:24:24;;;;;;;11.07;7.18;;;28.70;61.30;;;;;;5114894;28;20043;-55
2021/08/15 07:26:52;;;;;;;10.63;7.18;;;28.80;60.50;;;;;;5114667;28;20044;-53
2021/08/15 07:29:19;;;;;;;11.02;7.85;;;28.80;60.10;;;;;;5114527;28;20039;-54
2021/08/15 07:31:46;;;;;;;14.93;7.13;;;28.90;60.40;;;;;;5114449;28;20048;-53
2021/08/15 07:34:12;;;;;;;10.40;7.43;;;28.90;60.00;;;;;;5114258;28;20043;-50
2021/08/15 07:36:39;;;;;;;11.35;7.80;;;29.00;60.40;;;;;;5114594;28;20039;-54
2021/08/15 07:39:05;;;;;;;13.32;7.82;;;29.10;60.00;;;;;;5114275;28;20047;-55
2021/08/15 07:41:32;;;;;;;11.35;8.23;;;29.10;59.80;;;;;;5114596;28;20044;-54
2021/08/15 07:43:58;;;;;;;11.15;8.80;;;29.10;59.80;;;;;;5114503;28;20113;-53
2021/08/15 07:46:25;;;;;;;13.18;7.75;;;29.10;59.90;;;;;;5114497;28;20388;-55
2021/08/15 07:48:51;;;;;;;12.45;8.05;;;29.10;60.10;;;;;;5114287;28;20418;-55
2021/08/15 07:51:18;;;;;;;12.57;7.60;;;29.10;59.40;;;;;;5114290;28;20050;-55
2021/08/15 07:53:44;;;;;;;13.77;7.47;;;29.10;59.60;;;;;;5114265;28;20035;-54
2021/08/15 07:56:10;;;;;;;9.05;7.47;;;29.20;59.60;;;;;;5114714;28;20383;-54
2021/08/15 07:58:37;;;;;;;13.98;7.57;;;29.30;59.50;;;;;;5113876;28;20506;-53
2021/08/15 08:01:03;;;;;;;13.77;8.57;;;29.40;59.70;;;;;;5114502;28;20027;-53
2021/08/15 08:03:30;;;;;;;11.48;7.50;;;29.50;59.60;;;;;;5114971;28;20028;-54
2021/08/15 08:05:56;;;;;;;12.35;7.70;;;29.50;59.20;;;;;;5114060;28;20054;-55
2021/08/15 08:08:23;;;;;;;11.55;7.25;;;29.60;58.70;;;;;;5114325;28;20391;-52
2021/08/15 08:10:53;;;;;;;11.55;7.15;;;29.60;58.60;;;;;;5114548;28;20034;-53
2021/08/15 08:13:22;;;;;;;12.55;8.27;;;29.70;58.60;;;;;;5114076;28;20051;-55
2021/08/15 08:15:49;;;;;;;15.07;9.25;;;29.70;58.90;;;;;;5113795;28;20051;-55
2021/08/15 08:18:15;;;;;;;11.05;7.43;;;29.80;58.90;;;;;;5113751;28;20059;-55
2021/08/15 08:20:42;;;;;;;10.35;7.63;;;29.90;59.00;;;;;;5114168;28;20019;-51
2021/08/15 08:23:16;;;;;;;11.52;8.32;;;29.90;58.90;;;;;;5113478;28;20054;-54
2021/08/15 08:25:44;;;;;;;9.75;7.32;;;30.00;58.90;;;;;;5113613;28;20036;-53
2021/08/15 08:28:13;;;;;;;13.77;8.70;;;30.00;59.10;;;;;;5114076;28;20035;-55
2021/08/15 08:30:40;;;;;;;13.40;8.57;;;30.10;58.50;;;;;;5113350;28;20269;-52
2021/08/15 08:33:06;;;;;;;12.40;9.00;;;30.10;58.00;;;;;;5114035;28;20058;-52
2021/08/15 08:35:33;;;;;;;11.43;8.07;;;30.00;58.60;;;;;;5113466;28;20055;-55
2021/08/15 08:38:00;;;;;;;13.90;9.20;;;30.00;58.80;;;;;;5113964;28;20027;-49
2021/08/15 08:40:26;;;;;;;12.95;8.98;;;30.10;58.70;;;;;;5113334;28;20044;-52
2021/08/15 08:42:53;;;;;;;17.75;8.90;;;30.30;58.40;;;;;;5113055;28;20516;-50
2021/08/15 08:45:21;;;;;;;15.65;8.68;;;30.30;57.60;;;;;;5113115;28;20050;-50
2021/08/15 08:47:49;;;;;;;14.68;8.80;;;30.40;57.10;;;;;;5113201;28;20036;-51
2021/08/15 08:50:16;;;;;;;15.38;8.13;;;30.30;56.20;;;;;;5113703;28;20039;-52
2021/08/15 08:52:43;;;;;;;14.90;7.70;;;30.30;55.70;;;;;;5113738;28;20062;-55
2021/08/15 08:55:10;;;;;;;11.90;7.25;;;30.40;55.40;;;;;;5112752;28;20054;-54
2021/08/15 08:57:37;;;;;;;14.13;8.00;;;30.50;54.60;;;;;;5113034;28;20040;-51
2021/08/15 09:00:05;;;;;;;10.43;7.68;;;30.60;55.30;;;;;;5113301;28;20050;-59
2021/08/15 09:02:36;;;;;;;11.27;7.60;;;30.60;55.20;;;;;;5113609;28;20051;-56
2021/08/15 09:05:05;;;;;;;10.40;7.35;;;30.70;55.40;;;;;;5113304;28;20044;-55
2021/08/15 09:07:36;;;;;;;12.80;7.22;;;30.80;54.40;;;;;;5113066;27;20040;-51
2021/08/15 09:10:05;;;;;;;9.55;7.55;;;30.80;54.30;;;;;;5112208;28;20055;-54
2021/08/15 09:12:46;;;;;;;11.20;8.10;;;30.80;54.80;;;;;;5113619;28;20463;-54
2021/08/15 09:15:12;;;;;;;;;;;30.80;55.30;;;;;;5113677;28;20043;-53
2021/08/15 09:17:40;;;;;;;13.52;8.23;;;30.90;53.50;;;;;;5110917;28;19914;-54
2021/08/15 09:20:09;;;;;;;11.65;8.00;;;31.00;54.20;;;;;;5112671;28;20044;-55
2021/08/15 09:22:37;;;;;;;12.18;8.05;;;31.10;54.90;;;;;;5113043;28;20044;-51
2021/08/15 09:25:19;;;;;;;12.05;8.40;;;31.10;55.50;;;;;;5113414;28;20032;-55
2021/08/15 09:27:49;;;;;;;12.52;8.27;;;31.10;55.10;;;;;;5112614;28;20039;-49
2021/08/15 09:30:22;;;;;;;9.50;7.80;;;31.10;55.70;;;;;;5112563;28;20043;-52
2021/08/15 09:32:50;;;;;;;9.50;8.10;;;31.10;56.00;;;;;;5113141;28;20502;-50
2021/08/15 09:35:19;;;;;;;11.77;8.63;;;31.20;55.90;;;;;;5112637;28;20047;-55
2021/08/15 09:37:46;;;;;;;11.88;9.25;;;31.20;55.20;;;;;;5112302;28;20039;-58
2021/08/15 09:40:26;;;;;;;12.65;8.93;;;31.10;55.60;;;;;;5112577;28;20046;-49
2021/08/15 09:42:53;;;;;;;14.63;8.82;;;31.10;56.00;;;;;;5112438;28;20050;-52
2021/08/15 09:45:35;;;;;;;12.63;9.45;;;31.20;56.40;;;;;;5112772;28;20039;-53
2021/08/15 09:48:27;;;;;;;12.05;8.70;;;31.20;55.90;;;;;;5113135;28;20030;-49
2021/08/15 09:51:12;;;;;;;12.32;9.07;;;31.40;55.70;;;;;;5112416;28;20070;-52
2021/08/15 09:54:00;;;;;;;13.93;9.40;;;31.40;55.50;;;;;;5112219;28;20040;-54
2021/08/15 09:56:32;;;;;;;10.55;8.52;;;31.50;55.60;;;;;;5113146;28;20048;-51
2021/08/15 09:59:16;;;;;;;15.40;8.02;;;31.60;54.80;;;;;;5112696;28;20024;-49
2021/08/15 10:01:45;;;;;;;13.20;7.90;;;31.60;53.80;;;;;;5112191;28;20043;-53
2021/08/15 10:04:13;;;;;;;10.90;8.63;;;31.60;54.10;;;;;;5112515;28;20031;-55
2021/08/15 10:06:42;;;;;;;12.88;8.60;;;31.60;54.20;;;;;;5112142;28;20047;-51
2021/08/15 10:09:09;;;;;;;13.40;8.82;;;31.60;53.70;;;;;;5112772;28;20028;-49
2021/08/15 10:11:37;;;;;;;11.07;8.85;;;31.60;53.90;;;;;;5112314;28;20052;-51
2021/08/15 10:14:05;;;;;;;13.10;9.05;;;31.60;54.00;;;;;;5112342;28;20039;-53
2021/08/15 10:16:45;;;;;;;10.15;8.50;;;31.60;55.00;;;;;;5111927;28;20056;-53
2021/08/15 10:19:16;;;;;;;13.93;8.90;;;31.60;55.30;;;;;;5112980;28;20055;-55
2021/08/15 10:21:47;;;;;;;11.02;8.52;;;31.40;55.50;;;;;;5113729;28;20407;-54
2021/08/15 10:24:15;;;;;;;15.95;9.57;;;31.50;55.80;;;;;;5116583;28;20027;-55
2021/08/15 10:26:47;;;;;;;18.10;10.15;;;31.40;55.20;;;;;;5116014;28;20035;-52
2021/08/15 10:29:33;;;;;;;10.90;8.82;;;31.50;54.70;;;;;;5115790;28;20361;-54
2021/08/15 10:32:16;;;;;;;12.00;9.40;;;31.60;54.50;;;;;;5116359;28;20051;-52
2021/08/15 10:34:51;;;;;;;9.82;8.82;;;31.60;54.40;;;;;;5116523;28;20036;-55
2021/08/15 10:37:38;;;;;;;14.35;8.75;;;31.80;54.20;;;;;;5115842;28;20048;-56
2021/08/15 10:40:05;;;;;;;10.48;9.38;;;31.80;54.30;;;;;;5116318;27;20113;-52
2021/08/15 10:42:43;;;;;;;11.40;9.32;;;31.80;54.30;;;;;;5115604;28;20395;-53
2021/08/15 10:45:22;;;;;;;11.10;8.95;;;31.90;54.10;;;;;;5116608;28;20031;-49
2021/08/15 10:48:09;;;;;;;13.65;9.13;;;31.90;54.10;;;;;;5115217;28;20494;-54
2021/08/15 10:50:45;;;;;;;10.07;9.07;;;31.90;54.30;;;;;;5115702;28;20044;-48
2021/08/15 10:53:26;;;;;;;11.43;9.40;;;31.90;53.30;;;;;;5115569;28;20043;-55
2021/08/15 10:55:53;;;;;;;12.27;9.25;;;32.00;53.30;;;;;;5115778;28;20472;-54
2021/08/15 10:58:47;;;;;;;11.73;9.68;;;32.10;52.90;;;;;;5115553;28;20024;-50
2021/08/15 11:01:15;;;;;;;9.93;8.95;;;32.10;52.90;;;;;;5115220;28;20047;-50
2021/08/15 11:03:47;;;;;;;17.67;10.20;;;32.10;53.40;;;;;;5115131;28;20035;-55
2021/08/15 11:06:32;;;;;;;10.77;9.68;;;32.20;53.50;;;;;;5115851;28;20047;-52
2021/08/15 11:09:01;;;;;;;10.88;9.50;;;32.20;53.70;;;;;;5115718;28;20372;-54
2021/08/15 11:11:38;;;;;;;12.95;10.18;;;32.30;53.70;;;;;;5115772;28;20043;-50
2021/08/15 11:14:24;;;;;;;11.23;9.52;;;32.20;52.80;;;;;;5115058;28;20039;-52
2021/08/15 11:16:55;;;;;;;13.45;9.43;;;32.10;53.10;;;;;;5115298;28;20476;-53
2021/08/15 11:19:22;;;;;;;14.60;10.07;;;32.10;53.50;;;;;;5114853;28;20043;-54
2021/08/15 11:22:13;;;;;;;11.80;9.65;;;32.10;53.20;;;;;;5113330;28;20047;-55
2021/08/15 11:25:02;;;;;;;15.80;9.95;;;32.20;53.00;;;;;;5114826;28;20039;-54
2021/08/15 11:27:34;;;;;;;12.43;9.93;;;32.30;52.90;;;;;;5115350;28;20043;-53
2021/08/15 11:30:08;;;;;;;13.00;9.93;;;32.30;52.40;;;;;;5114463;28;20035;-55
2021/08/15 11:32:35;;;;;;;11.23;9.55;;;32.20;52.60;;;;;;5114733;27;20566;-56
2021/08/15 11:35:06;;;;;;;11.73;9.57;;;32.20;53.10;;;;;;5114434;28;20043;-56
2021/08/15 11:37:41;;;;;;;10.38;9.15;;;32.30;53.00;;;;;;5115193;27;20042;-54
2021/08/15 11:40:10;;;;;;;15.35;9.68;;;32.30;52.70;;;;;;5114792;28;20044;-54
2021/08/15 11:42:37;;;;;;;15.10;9.17;;;32.50;52.40;;;;;;5113439;28;20035;-53
2021/08/15 11:45:05;;;;;;;15.88;9.90;;;32.50;52.00;;;;;;5114532;28;20051;-53
2021/08/15 11:47:37;;;;;;;11.57;9.68;;;32.60;51.90;;;;;;5113441;28;20387;-54
2021/08/15 11:50:17;;;;;;;13.77;10.65;;;32.70;51.70;;;;;;5114231;28;20043;-56
2021/08/15 11:52:44;;;;;;;;;;;32.70;51.70;;;;;;5114479;27;20055;-57
2021/08/15 11:55:18;;;;;;;15.05;9.05;;;32.60;52.10;;;;;;5114765;28;20363;-54
2021/08/15 11:57:50;;;;;;;14.15;9.82;;;32.60;52.20;;;;;;5115207;28;20032;-56
2021/08/15 12:00:28;;;;;;;13.00;10.45;;;32.70;52.00;;;;;;5114155;28;20050;-59
2021/08/15 12:03:10;;;;;;;15.57;10.13;;;32.70;51.50;;;;;;5113979;28;20423;-55
2021/08/15 12:05:52;;;;;;;12.00;10.07;;;32.60;51.60;;;;;;5113911;28;20051;-55
2021/08/15 12:08:21;;;;;;;12.93;9.77;;;32.70;51.30;;;;;;5114605;28;20038;-58
2021/08/15 12:10:50;;;;;;;16.17;11.18;;;32.80;51.40;;;;;;5114956;28;20024;-56
2021/08/15 12:13:19;;;;;;;11.45;10.07;;;32.80;51.10;;;;;;5114390;28;20035;-54
2021/08/15 12:15:49;;;;;;;14.88;9.90;;;32.70;51.30;;;;;;5113633;28;20047;-54
2021/08/15 12:18:40;;;;;;;11.23;9.80;;;32.70;51.30;;;;;;5114750;28;20035;-55
2021/08/15 12:21:34;;;;;;;13.55;10.73;;;32.70;51.10;;;;;;5114061;28;20383;-51
2021/08/15 12:24:04;;;;;;;12.80;10.07;;;32.70;51.00;;;;;;5114324;28;20486;-55
2021/08/15 12:26:36;;;;;;;13.70;9.93;;;32.80;50.70;;;;;;5113605;28;20380;-52
2021/08/15 12:29:09;;;;;;;13.27;10.05;;;32.80;51.00;;;;;;5114323;28;20034;-55
2021/08/15 12:31:37;;;;;;;14.52;10.40;;;32.80;51.10;;;;;;5113655;28;20055;-52
2021/08/15 12:34:05;;;;;;;12.32;9.48;;;32.90;51.30;;;;;;5113869;28;20039;-58
2021/08/15 12:36:41;;;;;;;14.30;10.45;;;32.90;51.30;;;;;;5113337;28;20114;-52
2021/08/15 12:39:08;;;;;;;15.15;10.75;;;33.00;51.50;;;;;;5113148;28;20475;-55
2021/08/15 12:41:58;;;;;;;17.85;11.07;;;32.90;51.80;;;;;;5113183;28;20050;-53
2021/08/15 12:44:29;;;;;;;13.43;9.68;;;32.90;51.90;;;;;;5112571;28;20044;-54
2021/08/15 12:47:08;;;;;;;12.95;10.20;;;32.90;52.20;;;;;;5113480;28;20039;-55
2021/08/15 12:49:46;;;;;;;15.93;9.75;;;32.90;52.10;;;;;;5113836;28;20031;-55